sensor_id;sensor_type;location;lat;lon;timestamp;P1;durP1;ratioP1;P2;durP2;ratioP2
50739;SDS011;36704;52.524;17.580;2022-10-30T00:02:48;32.28;;;21.25;;
50739;SDS011;36704;52.524;17.580;2022-10-30T00:05:34;36.40;;;22.80;;
50739;SDS011;36704;52.524;17.580;2022-10-30T00:08:20;36.97;;;22.80;;
50739;SDS011;36704;52.524;17.580;2022-10-30T00:11:08;37.08;;;22.65;;
50739;SDS011;36704;52.524;17.580;2022-10-30T00:13:55;36.72;;;22.73;;
50739;SDS011;36704;52.524;17.580;2022-10-30T00:16:41;41.53;;;22.80;;
50739;SDS011;36704;52.524;17.580;2022-10-30T00:19:27;36.05;;;21.98;;
50739;SDS011;36704;52.524;17.580;2022-10-30T00:22:13;36.75;;;21.67;;
50739;SDS011;36704;52.524;17.580;2022-10-30T00:24:59;37.63;;;22.42;;
50739;SDS011;36704;52.524;17.580;2022-10-30T00:27:45;38.63;;;23.33;;
50739;SDS011;36704;52.524;17.580;2022-10-30T00:30:31;34.88;;;21.52;;
50739;SDS011;36704;52.524;17.580;2022-10-30T00:33:17;41.90;;;23.38;;
50739;SDS011;36704;52.524;17.580;2022-10-30T00:36:04;40.28;;;22.75;;
50739;SDS011;36704;52.524;17.580;2022-10-30T00:38:50;31.42;;;20.88;;
50739;SDS011;36704;52.524;17.580;2022-10-30T00:41:37;33.00;;;20.95;;
50739;SDS011;36704;52.524;17.580;2022-10-30T00:47:33;35.72;;;21.35;;
50739;SDS011;36704;52.524;17.580;2022-10-30T00:53:17;33.40;;;21.30;;
50739;SDS011;36704;52.524;17.580;2022-10-30T00:56:05;34.42;;;21.98;;
50739;SDS011;36704;52.524;17.580;2022-10-30T00:58:53;42.72;;;22.70;;
50739;SDS011;36704;52.524;17.580;2022-10-30T01:01:43;43.35;;;23.52;;
50739;SDS011;36704;52.524;17.580;2022-10-30T01:04:30;37.85;;;23.30;;
50739;SDS011;36704;52.524;17.580;2022-10-30T01:07:18;38.20;;;23.80;;
50739;SDS011;36704;52.524;17.580;2022-10-30T01:10:05;42.15;;;24.40;;
50739;SDS011;36704;52.524;17.580;2022-10-30T01:13:11;47.40;;;25.52;;
50739;SDS011;36704;52.524;17.580;2022-10-30T01:18:50;47.70;;;26.02;;
50739;SDS011;36704;52.524;17.580;2022-10-30T01:31:15;42.72;;;25.83;;
50739;SDS011;36704;52.524;17.580;2022-10-30T01:37:33;40.30;;;25.25;;
50739;SDS011;36704;52.524;17.580;2022-10-30T01:40:44;46.97;;;25.92;;
50739;SDS011;36704;52.524;17.580;2022-10-30T01:43:31;42.75;;;24.70;;
50739;SDS011;36704;52.524;17.580;2022-10-30T01:49:34;39.92;;;24.83;;
50739;SDS011;36704;52.524;17.580;2022-10-30T01:59:20;47.60;;;24.98;;
50739;SDS011;36704;52.524;17.580;2022-10-30T02:02:28;40.67;;;23.38;;
50739;SDS011;36704;52.524;17.580;2022-10-30T02:05:36;42.42;;;25.42;;
50739;SDS011;36704;52.524;17.580;2022-10-30T02:08:22;45.70;;;28.45;;
50739;SDS011;36704;52.524;17.580;2022-10-30T02:11:27;49.55;;;27.15;;
50739;SDS011;36704;52.524;17.580;2022-10-30T02:14:35;46.58;;;27.33;;
50739;SDS011;36704;52.524;17.580;2022-10-30T02:17:25;43.83;;;26.73;;
50739;SDS011;36704;52.524;17.580;2022-10-30T02:20:30;42.55;;;25.25;;
50739;SDS011;36704;52.524;17.580;2022-10-30T02:23:16;41.45;;;25.90;;
50739;SDS011;36704;52.524;17.580;2022-10-30T02:26:03;40.63;;;24.92;;
50739;SDS011;36704;52.524;17.580;2022-10-30T02:28:49;43.72;;;24.95;;
50739;SDS011;36704;52.524;17.580;2022-10-30T02:31:53;45.03;;;25.20;;
50739;SDS011;36704;52.524;17.580;2022-10-30T02:34:58;40.95;;;25.50;;
50739;SDS011;36704;52.524;17.580;2022-10-30T02:37:46;42.80;;;25.20;;
50739;SDS011;36704;52.524;17.580;2022-10-30T02:40:33;40.53;;;24.83;;
50739;SDS011;36704;52.524;17.580;2022-10-30T02:43:37;43.92;;;26.30;;
50739;SDS011;36704;52.524;17.580;2022-10-30T02:46:23;44.50;;;25.40;;
50739;SDS011;36704;52.524;17.580;2022-10-30T02:49:28;39.58;;;22.95;;
50739;SDS011;36704;52.524;17.580;2022-10-30T02:52:14;44.75;;;22.92;;
50739;SDS011;36704;52.524;17.580;2022-10-30T02:55:00;39.17;;;24.48;;
50739;SDS011;36704;52.524;17.580;2022-10-30T02:57:46;40.00;;;24.23;;
50739;SDS011;36704;52.524;17.580;2022-10-30T03:00:31;39.35;;;24.45;;
50739;SDS011;36704;52.524;17.580;2022-10-30T03:03:36;42.03;;;24.75;;
50739;SDS011;36704;52.524;17.580;2022-10-30T03:06:22;40.92;;;24.40;;
50739;SDS011;36704;52.524;17.580;2022-10-30T03:09:08;35.95;;;22.45;;
50739;SDS011;36704;52.524;17.580;2022-10-30T03:11:54;36.05;;;23.63;;
50739;SDS011;36704;52.524;17.580;2022-10-30T03:15:04;43.63;;;24.35;;
50739;SDS011;36704;52.524;17.580;2022-10-30T03:18:11;39.30;;;24.88;;
50739;SDS011;36704;52.524;17.580;2022-10-30T03:21:18;43.20;;;24.75;;
50739;SDS011;36704;52.524;17.580;2022-10-30T03:24:09;40.20;;;25.40;;
50739;SDS011;36704;52.524;17.580;2022-10-30T03:27:17;44.60;;;26.40;;
50739;SDS011;36704;52.524;17.580;2022-10-30T03:30:09;46.08;;;26.95;;
50739;SDS011;36704;52.524;17.580;2022-10-30T03:32:56;44.88;;;26.85;;
50739;SDS011;36704;52.524;17.580;2022-10-30T03:35:43;45.53;;;25.67;;
50739;SDS011;36704;52.524;17.580;2022-10-30T03:38:30;44.15;;;26.63;;
50739;SDS011;36704;52.524;17.580;2022-10-30T03:41:21;46.28;;;29.48;;
50739;SDS011;36704;52.524;17.580;2022-10-30T03:44:09;47.67;;;27.48;;
50739;SDS011;36704;52.524;17.580;2022-10-30T03:46:56;37.95;;;24.38;;
50739;SDS011;36704;52.524;17.580;2022-10-30T03:49:48;34.00;;;23.00;;
50739;SDS011;36704;52.524;17.580;2022-10-30T03:52:56;35.88;;;22.67;;
50739;SDS011;36704;52.524;17.580;2022-10-30T03:55:45;43.60;;;25.33;;
50739;SDS011;36704;52.524;17.580;2022-10-30T03:58:33;39.65;;;26.25;;
50739;SDS011;36704;52.524;17.580;2022-10-30T04:01:21;43.13;;;25.25;;
50739;SDS011;36704;52.524;17.580;2022-10-30T04:04:15;40.58;;;26.27;;
50739;SDS011;36704;52.524;17.580;2022-10-30T04:07:03;43.30;;;24.85;;
50739;SDS011;36704;52.524;17.580;2022-10-30T04:09:53;41.93;;;24.03;;
50739;SDS011;36704;52.524;17.580;2022-10-30T04:13:03;38.63;;;24.60;;
50739;SDS011;36704;52.524;17.580;2022-10-30T04:15:51;37.42;;;24.50;;
50739;SDS011;36704;52.524;17.580;2022-10-30T04:19:02;42.38;;;25.27;;
50739;SDS011;36704;52.524;17.580;2022-10-30T04:21:51;52.15;;;28.00;;
50739;SDS011;36704;52.524;17.580;2022-10-30T04:24:36;48.90;;;29.48;;
50739;SDS011;36704;52.524;17.580;2022-10-30T04:27:24;46.63;;;28.83;;
50739;SDS011;36704;52.524;17.580;2022-10-30T04:30:10;50.10;;;27.45;;
50739;SDS011;36704;52.524;17.580;2022-10-30T04:32:56;43.88;;;27.50;;
50739;SDS011;36704;52.524;17.580;2022-10-30T04:36:02;42.28;;;26.17;;
50739;SDS011;36704;52.524;17.580;2022-10-30T04:39:08;44.38;;;26.52;;
50739;SDS011;36704;52.524;17.580;2022-10-30T04:41:54;52.53;;;29.95;;
50739;SDS011;36704;52.524;17.580;2022-10-30T04:44:47;54.85;;;30.50;;
50739;SDS011;36704;52.524;17.580;2022-10-30T04:47:33;47.53;;;28.63;;
50739;SDS011;36704;52.524;17.580;2022-10-30T04:50:19;46.05;;;26.65;;
50739;SDS011;36704;52.524;17.580;2022-10-30T04:53:06;42.97;;;25.90;;
50739;SDS011;36704;52.524;17.580;2022-10-30T04:55:54;45.42;;;27.70;;
50739;SDS011;36704;52.524;17.580;2022-10-30T04:58:58;43.05;;;26.80;;
50739;SDS011;36704;52.524;17.580;2022-10-30T05:02:02;43.90;;;27.13;;
50739;SDS011;36704;52.524;17.580;2022-10-30T05:04:52;42.80;;;27.58;;
50739;SDS011;36704;52.524;17.580;2022-10-30T05:07:37;43.75;;;26.98;;
50739;SDS011;36704;52.524;17.580;2022-10-30T05:10:23;46.97;;;26.77;;
50739;SDS011;36704;52.524;17.580;2022-10-30T05:13:12;50.83;;;26.13;;
50739;SDS011;36704;52.524;17.580;2022-10-30T05:16:25;42.00;;;24.95;;
50739;SDS011;36704;52.524;17.580;2022-10-30T05:19:12;41.47;;;24.42;;
50739;SDS011;36704;52.524;17.580;2022-10-30T05:22:04;41.38;;;24.00;;
50739;SDS011;36704;52.524;17.580;2022-10-30T05:24:49;42.72;;;23.33;;
50739;SDS011;36704;52.524;17.580;2022-10-30T05:27:35;42.25;;;24.05;;
50739;SDS011;36704;52.524;17.580;2022-10-30T05:30:40;39.85;;;23.52;;
50739;SDS011;36704;52.524;17.580;2022-10-30T05:33:39;38.95;;;23.73;;
50739;SDS011;36704;52.524;17.580;2022-10-30T05:36:26;40.33;;;24.42;;
50739;SDS011;36704;52.524;17.580;2022-10-30T05:39:31;44.97;;;24.83;;
50739;SDS011;36704;52.524;17.580;2022-10-30T05:42:17;41.72;;;23.98;;
50739;SDS011;36704;52.524;17.580;2022-10-30T05:45:22;46.63;;;29.60;;
50739;SDS011;36704;52.524;17.580;2022-10-30T05:48:09;45.90;;;27.60;;
50739;SDS011;36704;52.524;17.580;2022-10-30T05:51:00;53.83;;;30.90;;
50739;SDS011;36704;52.524;17.580;2022-10-30T05:53:48;50.00;;;30.67;;
50739;SDS011;36704;52.524;17.580;2022-10-30T05:56:34;53.03;;;31.05;;
50739;SDS011;36704;52.524;17.580;2022-10-30T05:59:19;48.35;;;29.98;;
50739;SDS011;36704;52.524;17.580;2022-10-30T06:02:05;45.35;;;29.55;;
50739;SDS011;36704;52.524;17.580;2022-10-30T06:04:51;49.15;;;30.20;;
50739;SDS011;36704;52.524;17.580;2022-10-30T06:07:38;45.75;;;29.15;;
50739;SDS011;36704;52.524;17.580;2022-10-30T06:10:25;48.10;;;30.60;;
50739;SDS011;36704;52.524;17.580;2022-10-30T06:13:34;52.00;;;30.60;;
50739;SDS011;36704;52.524;17.580;2022-10-30T06:16:30;44.95;;;29.20;;
50739;SDS011;36704;52.524;17.580;2022-10-30T06:19:43;47.00;;;29.55;;
50739;SDS011;36704;52.524;17.580;2022-10-30T06:23:02;47.50;;;30.02;;
50739;SDS011;36704;52.524;17.580;2022-10-30T06:26:06;56.55;;;30.73;;
50739;SDS011;36704;52.524;17.580;2022-10-30T06:28:56;61.63;;;31.60;;
50739;SDS011;36704;52.524;17.580;2022-10-30T06:32:00;48.35;;;31.52;;
50739;SDS011;36704;52.524;17.580;2022-10-30T06:34:53;54.45;;;34.17;;
50739;SDS011;36704;52.524;17.580;2022-10-30T06:37:53;56.65;;;33.38;;
50739;SDS011;36704;52.524;17.580;2022-10-30T06:41:01;64.45;;;40.25;;
50739;SDS011;36704;52.524;17.580;2022-10-30T06:43:56;64.78;;;38.42;;
50739;SDS011;36704;52.524;17.580;2022-10-30T06:46:42;57.83;;;36.55;;
50739;SDS011;36704;52.524;17.580;2022-10-30T06:49:47;58.58;;;34.90;;
50739;SDS011;36704;52.524;17.580;2022-10-30T06:52:33;58.72;;;34.08;;
50739;SDS011;36704;52.524;17.580;2022-10-30T06:55:20;55.17;;;34.22;;
50739;SDS011;36704;52.524;17.580;2022-10-30T06:58:22;56.22;;;34.45;;
50739;SDS011;36704;52.524;17.580;2022-10-30T07:01:24;47.35;;;32.53;;
50739;SDS011;36704;52.524;17.580;2022-10-30T07:04:36;49.58;;;31.85;;
50739;SDS011;36704;52.524;17.580;2022-10-30T07:07:22;53.72;;;33.33;;
50739;SDS011;36704;52.524;17.580;2022-10-30T07:10:27;49.92;;;31.95;;
50739;SDS011;36704;52.524;17.580;2022-10-30T07:13:48;66.28;;;37.45;;
50739;SDS011;36704;52.524;17.580;2022-10-30T07:17:00;115.20;;;64.18;;
50739;SDS011;36704;52.524;17.580;2022-10-30T07:19:48;109.93;;;62.05;;
50739;SDS011;36704;52.524;17.580;2022-10-30T07:22:36;100.60;;;56.85;;
50739;SDS011;36704;52.524;17.580;2022-10-30T07:25:23;120.50;;;64.40;;
50739;SDS011;36704;52.524;17.580;2022-10-30T07:28:32;90.30;;;54.67;;
50739;SDS011;36704;52.524;17.580;2022-10-30T07:31:38;97.80;;;55.25;;
50739;SDS011;36704;52.524;17.580;2022-10-30T07:35:12;77.25;;;48.20;;
50739;SDS011;36704;52.524;17.580;2022-10-30T07:38:17;68.82;;;39.97;;
50739;SDS011;36704;52.524;17.580;2022-10-30T07:41:30;62.35;;;37.78;;
50739;SDS011;36704;52.524;17.580;2022-10-30T07:44:34;61.78;;;37.03;;
50739;SDS011;36704;52.524;17.580;2022-10-30T07:47:42;93.53;;;55.47;;
50739;SDS011;36704;52.524;17.580;2022-10-30T07:50:54;124.47;;;66.97;;
50739;SDS011;36704;52.524;17.580;2022-10-30T07:53:40;119.32;;;68.90;;
50739;SDS011;36704;52.524;17.580;2022-10-30T07:56:27;119.88;;;63.85;;
50739;SDS011;36704;52.524;17.580;2022-10-30T07:59:14;76.05;;;45.85;;
50739;SDS011;36704;52.524;17.580;2022-10-30T08:02:37;57.70;;;37.55;;
50739;SDS011;36704;52.524;17.580;2022-10-30T08:05:40;53.80;;;33.25;;
50739;SDS011;36704;52.524;17.580;2022-10-30T08:08:29;50.20;;;33.28;;
50739;SDS011;36704;52.524;17.580;2022-10-30T08:11:25;55.22;;;34.58;;
50739;SDS011;36704;52.524;17.580;2022-10-30T08:14:12;51.13;;;34.28;;
50739;SDS011;36704;52.524;17.580;2022-10-30T08:17:16;54.35;;;32.22;;
50739;SDS011;36704;52.524;17.580;2022-10-30T08:20:03;53.17;;;30.90;;
50739;SDS011;36704;52.524;17.580;2022-10-30T08:22:54;51.10;;;30.35;;
50739;SDS011;36704;52.524;17.580;2022-10-30T08:26:01;62.92;;;32.63;;
50739;SDS011;36704;52.524;17.580;2022-10-30T08:28:50;61.25;;;33.63;;
50739;SDS011;36704;52.524;17.580;2022-10-30T08:31:38;52.08;;;30.95;;
50739;SDS011;36704;52.524;17.580;2022-10-30T08:34:41;52.55;;;30.15;;
50739;SDS011;36704;52.524;17.580;2022-10-30T08:37:48;51.83;;;28.77;;
50739;SDS011;36704;52.524;17.580;2022-10-30T08:40:52;50.47;;;30.67;;
50739;SDS011;36704;52.524;17.580;2022-10-30T08:43:39;47.08;;;29.65;;
50739;SDS011;36704;52.524;17.580;2022-10-30T08:46:25;46.20;;;30.33;;
50739;SDS011;36704;52.524;17.580;2022-10-30T08:49:11;45.25;;;28.95;;
50739;SDS011;36704;52.524;17.580;2022-10-30T08:52:08;44.92;;;27.70;;
50739;SDS011;36704;52.524;17.580;2022-10-30T08:55:07;46.10;;;27.90;;
50739;SDS011;36704;52.524;17.580;2022-10-30T08:58:12;39.88;;;25.48;;
50739;SDS011;36704;52.524;17.580;2022-10-30T09:00:59;51.35;;;28.20;;
50739;SDS011;36704;52.524;17.580;2022-10-30T09:04:06;37.20;;;24.25;;
50739;SDS011;36704;52.524;17.580;2022-10-30T09:07:31;42.17;;;24.52;;
50739;SDS011;36704;52.524;17.580;2022-10-30T09:10:39;42.90;;;24.08;;
50739;SDS011;36704;52.524;17.580;2022-10-30T09:13:25;45.03;;;25.63;;
50739;SDS011;36704;52.524;17.580;2022-10-30T09:16:13;48.28;;;26.42;;
50739;SDS011;36704;52.524;17.580;2022-10-30T09:18:58;47.72;;;27.35;;
50739;SDS011;36704;52.524;17.580;2022-10-30T09:21:45;46.33;;;27.98;;
50739;SDS011;36704;52.524;17.580;2022-10-30T09:24:32;51.65;;;30.23;;
50739;SDS011;36704;52.524;17.580;2022-10-30T09:27:20;46.05;;;27.85;;
50739;SDS011;36704;52.524;17.580;2022-10-30T09:30:07;46.38;;;27.13;;
50739;SDS011;36704;52.524;17.580;2022-10-30T09:33:18;40.55;;;24.92;;
50739;SDS011;36704;52.524;17.580;2022-10-30T09:36:34;41.38;;;25.10;;
50739;SDS011;36704;52.524;17.580;2022-10-30T09:39:39;43.50;;;24.52;;
50739;SDS011;36704;52.524;17.580;2022-10-30T09:42:47;41.03;;;25.95;;
50739;SDS011;36704;52.524;17.580;2022-10-30T09:45:45;43.20;;;24.00;;
50739;SDS011;36704;52.524;17.580;2022-10-30T09:51:54;40.65;;;24.75;;
50739;SDS011;36704;52.524;17.580;2022-10-30T09:56:03;45.87;;;24.77;;
50739;SDS011;36704;52.524;17.580;2022-10-30T10:02:20;44.00;;;24.58;;
50739;SDS011;36704;52.524;17.580;2022-10-30T10:06:16;39.78;;;24.90;;
50739;SDS011;36704;52.524;17.580;2022-10-30T10:09:11;41.78;;;24.77;;
50739;SDS011;36704;52.524;17.580;2022-10-30T10:12:20;42.50;;;23.67;;
50739;SDS011;36704;52.524;17.580;2022-10-30T10:15:24;43.13;;;25.30;;
50739;SDS011;36704;52.524;17.580;2022-10-30T10:18:18;38.45;;;24.70;;
50739;SDS011;36704;52.524;17.580;2022-10-30T10:21:09;37.58;;;24.52;;
50739;SDS011;36704;52.524;17.580;2022-10-30T10:24:01;40.38;;;25.77;;
50739;SDS011;36704;52.524;17.580;2022-10-30T10:26:49;42.05;;;26.52;;
50739;SDS011;36704;52.524;17.580;2022-10-30T10:30:04;45.75;;;27.88;;
50739;SDS011;36704;52.524;17.580;2022-10-30T10:36:26;43.67;;;24.55;;
50739;SDS011;36704;52.524;17.580;2022-10-30T10:39:51;40.20;;;25.35;;
50739;SDS011;36704;52.524;17.580;2022-10-30T10:45:49;37.88;;;23.88;;
50739;SDS011;36704;52.524;17.580;2022-10-30T10:49:02;41.25;;;25.80;;
50739;SDS011;36704;52.524;17.580;2022-10-30T10:51:59;42.92;;;25.75;;
50739;SDS011;36704;52.524;17.580;2022-10-30T10:54:58;44.60;;;26.15;;
50739;SDS011;36704;52.524;17.580;2022-10-30T10:57:45;43.55;;;26.60;;
50739;SDS011;36704;52.524;17.580;2022-10-30T11:00:31;45.05;;;26.55;;
50739;SDS011;36704;52.524;17.580;2022-10-30T11:03:19;44.75;;;27.48;;
50739;SDS011;36704;52.524;17.580;2022-10-30T11:09:21;49.47;;;26.05;;
50739;SDS011;36704;52.524;17.580;2022-10-30T11:12:08;49.97;;;26.02;;
50739;SDS011;36704;52.524;17.580;2022-10-30T11:14:54;43.40;;;25.98;;
50739;SDS011;36704;52.524;17.580;2022-10-30T11:17:43;48.95;;;26.15;;
50739;SDS011;36704;52.524;17.580;2022-10-30T11:21:12;45.22;;;26.65;;
50739;SDS011;36704;52.524;17.580;2022-10-30T11:24:02;46.25;;;25.90;;
50739;SDS011;36704;52.524;17.580;2022-10-30T11:26:47;41.72;;;27.45;;
50739;SDS011;36704;52.524;17.580;2022-10-30T11:29:33;47.58;;;28.85;;
50739;SDS011;36704;52.524;17.580;2022-10-30T11:32:19;46.35;;;28.45;;
50739;SDS011;36704;52.524;17.580;2022-10-30T11:41:17;43.33;;;26.38;;
50739;SDS011;36704;52.524;17.580;2022-10-30T11:44:04;51.80;;;27.75;;
50739;SDS011;36704;52.524;17.580;2022-10-30T11:46:51;45.78;;;29.00;;
50739;SDS011;36704;52.524;17.580;2022-10-30T11:52:49;49.30;;;28.52;;
50739;SDS011;36704;52.524;17.580;2022-10-30T11:55:37;46.67;;;29.98;;
50739;SDS011;36704;52.524;17.580;2022-10-30T11:58:51;51.08;;;31.17;;
50739;SDS011;36704;52.524;17.580;2022-10-30T12:01:39;52.92;;;31.23;;
50739;SDS011;36704;52.524;17.580;2022-10-30T12:05:01;49.38;;;31.38;;
50739;SDS011;36704;52.524;17.580;2022-10-30T12:07:47;54.17;;;31.55;;
50739;SDS011;36704;52.524;17.580;2022-10-30T12:13:38;54.80;;;30.50;;
50739;SDS011;36704;52.524;17.580;2022-10-30T12:16:24;58.35;;;33.25;;
50739;SDS011;36704;52.524;17.580;2022-10-30T12:19:10;56.80;;;32.92;;
50739;SDS011;36704;52.524;17.580;2022-10-30T12:21:59;51.45;;;31.42;;
50739;SDS011;36704;52.524;17.580;2022-10-30T12:24:54;50.38;;;32.08;;
50739;SDS011;36704;52.524;17.580;2022-10-30T12:27:41;56.22;;;32.38;;
50739;SDS011;36704;52.524;17.580;2022-10-30T12:30:27;63.88;;;38.65;;
50739;SDS011;36704;52.524;17.580;2022-10-30T12:33:16;69.85;;;42.47;;
50739;SDS011;36704;52.524;17.580;2022-10-30T12:36:06;62.13;;;37.63;;
50739;SDS011;36704;52.524;17.580;2022-10-30T12:39:02;56.47;;;33.42;;
50739;SDS011;36704;52.524;17.580;2022-10-30T12:42:13;56.00;;;33.75;;
50739;SDS011;36704;52.524;17.580;2022-10-30T12:51:13;48.13;;;32.05;;
50739;SDS011;36704;52.524;17.580;2022-10-30T12:54:28;56.50;;;33.22;;
50739;SDS011;36704;52.524;17.580;2022-10-30T12:57:17;57.65;;;34.03;;
50739;SDS011;36704;52.524;17.580;2022-10-30T13:00:24;58.63;;;36.60;;
50739;SDS011;36704;52.524;17.580;2022-10-30T13:06:09;55.70;;;35.65;;
50739;SDS011;36704;52.524;17.580;2022-10-30T13:10:01;54.13;;;34.30;;
50739;SDS011;36704;52.524;17.580;2022-10-30T13:12:37;55.28;;;37.05;;
50739;SDS011;36704;52.524;17.580;2022-10-30T13:15:45;62.63;;;38.20;;
50739;SDS011;36704;52.524;17.580;2022-10-30T13:18:33;63.93;;;38.50;;
50739;SDS011;36704;52.524;17.580;2022-10-30T13:24:38;55.22;;;34.72;;
50739;SDS011;36704;52.524;17.580;2022-10-30T13:30:59;62.55;;;39.03;;
50739;SDS011;36704;52.524;17.580;2022-10-30T13:37:06;63.17;;;40.38;;
50739;SDS011;36704;52.524;17.580;2022-10-30T13:40:31;67.88;;;38.63;;
50739;SDS011;36704;52.524;17.580;2022-10-30T13:52:35;65.07;;;39.78;;
50739;SDS011;36704;52.524;17.580;2022-10-30T13:55:41;73.13;;;40.58;;
50739;SDS011;36704;52.524;17.580;2022-10-30T13:58:39;71.20;;;40.47;;
50739;SDS011;36704;52.524;17.580;2022-10-30T14:08:36;66.22;;;41.65;;
50739;SDS011;36704;52.524;17.580;2022-10-30T14:11:25;77.43;;;43.22;;
50739;SDS011;36704;52.524;17.580;2022-10-30T14:17:11;71.18;;;42.22;;
50739;SDS011;36704;52.524;17.580;2022-10-30T14:20:20;81.97;;;42.13;;
50739;SDS011;36704;52.524;17.580;2022-10-30T14:26:18;74.18;;;44.20;;
50739;SDS011;36704;52.524;17.580;2022-10-30T14:32:31;83.60;;;42.85;;
50739;SDS011;36704;52.524;17.580;2022-10-30T14:35:29;72.18;;;42.80;;
50739;SDS011;36704;52.524;17.580;2022-10-30T14:38:21;72.85;;;43.05;;
50739;SDS011;36704;52.524;17.580;2022-10-30T14:44:32;85.32;;;44.50;;
50739;SDS011;36704;52.524;17.580;2022-10-30T14:48:23;79.57;;;45.00;;
50739;SDS011;36704;52.524;17.580;2022-10-30T14:54:35;77.13;;;45.83;;
50739;SDS011;36704;52.524;17.580;2022-10-30T15:07:32;75.22;;;46.97;;
50739;SDS011;36704;52.524;17.580;2022-10-30T15:10:32;83.82;;;49.65;;
50739;SDS011;36704;52.524;17.580;2022-10-30T15:13:19;90.60;;;48.45;;
50739;SDS011;36704;52.524;17.580;2022-10-30T15:16:06;83.55;;;48.15;;
50739;SDS011;36704;52.524;17.580;2022-10-30T15:19:11;112.70;;;66.15;;
50739;SDS011;36704;52.524;17.580;2022-10-30T15:21:59;120.40;;;69.22;;
50739;SDS011;36704;52.524;17.580;2022-10-30T15:24:44;115.20;;;70.68;;
50739;SDS011;36704;52.524;17.580;2022-10-30T15:27:55;102.75;;;56.75;;
50739;SDS011;36704;52.524;17.580;2022-10-30T15:30:56;96.35;;;52.05;;
50739;SDS011;36704;52.524;17.580;2022-10-30T15:33:49;94.03;;;53.25;;
50739;SDS011;36704;52.524;17.580;2022-10-30T15:36:40;130.75;;;79.00;;
50739;SDS011;36704;52.524;17.580;2022-10-30T15:39:26;103.50;;;57.63;;
50739;SDS011;36704;52.524;17.580;2022-10-30T15:42:12;106.00;;;56.38;;
50739;SDS011;36704;52.524;17.580;2022-10-30T15:44:58;93.03;;;54.42;;
50739;SDS011;36704;52.524;17.580;2022-10-30T15:47:44;94.63;;;51.20;;
50739;SDS011;36704;52.524;17.580;2022-10-30T15:50:33;100.30;;;55.20;;
50739;SDS011;36704;52.524;17.580;2022-10-30T15:53:20;122.57;;;69.50;;
50739;SDS011;36704;52.524;17.580;2022-10-30T15:56:31;99.53;;;55.50;;
50739;SDS011;36704;52.524;17.580;2022-10-30T15:59:33;111.88;;;58.05;;
50739;SDS011;36704;52.524;17.580;2022-10-30T16:02:38;110.30;;;56.05;;
50739;SDS011;36704;52.524;17.580;2022-10-30T16:05:25;114.05;;;57.05;;
50739;SDS011;36704;52.524;17.580;2022-10-30T16:08:18;113.50;;;59.42;;
50739;SDS011;36704;52.524;17.580;2022-10-30T16:11:06;121.07;;;59.97;;
50739;SDS011;36704;52.524;17.580;2022-10-30T16:14:14;112.15;;;59.20;;
50739;SDS011;36704;52.524;17.580;2022-10-30T16:17:01;125.95;;;63.20;;
50739;SDS011;36704;52.524;17.580;2022-10-30T16:20:08;134.60;;;75.75;;
50739;SDS011;36704;52.524;17.580;2022-10-30T16:22:54;134.68;;;75.68;;
50739;SDS011;36704;52.524;17.580;2022-10-30T16:25:40;136.95;;;72.63;;
50739;SDS011;36704;52.524;17.580;2022-10-30T16:28:33;220.43;;;128.70;;
50739;SDS011;36704;52.524;17.580;2022-10-30T16:31:20;174.75;;;97.07;;
50739;SDS011;36704;52.524;17.580;2022-10-30T16:34:10;139.75;;;75.72;;
50739;SDS011;36704;52.524;17.580;2022-10-30T16:37:04;150.90;;;82.38;;
50739;SDS011;36704;52.524;17.580;2022-10-30T16:39:50;219.45;;;118.85;;
50739;SDS011;36704;52.524;17.580;2022-10-30T16:42:37;223.80;;;120.57;;
50739;SDS011;36704;52.524;17.580;2022-10-30T16:45:46;204.40;;;106.95;;
50739;SDS011;36704;52.524;17.580;2022-10-30T16:48:33;184.35;;;94.32;;
50739;SDS011;36704;52.524;17.580;2022-10-30T16:51:19;186.07;;;88.28;;
50739;SDS011;36704;52.524;17.580;2022-10-30T16:54:34;192.40;;;86.43;;
50739;SDS011;36704;52.524;17.580;2022-10-30T16:57:24;198.80;;;94.63;;
50739;SDS011;36704;52.524;17.580;2022-10-30T17:00:19;185.23;;;94.18;;
50739;SDS011;36704;52.524;17.580;2022-10-30T17:03:11;254.80;;;125.25;;
50739;SDS011;36704;52.524;17.580;2022-10-30T17:05:58;234.68;;;118.90;;
50739;SDS011;36704;52.524;17.580;2022-10-30T17:08:50;224.02;;;109.03;;
50739;SDS011;36704;52.524;17.580;2022-10-30T17:11:38;189.23;;;97.93;;
50739;SDS011;36704;52.524;17.580;2022-10-30T17:14:26;197.82;;;98.70;;
50739;SDS011;36704;52.524;17.580;2022-10-30T17:17:22;228.70;;;115.25;;
50739;SDS011;36704;52.524;17.580;2022-10-30T17:20:26;221.77;;;113.72;;
50739;SDS011;36704;52.524;17.580;2022-10-30T17:23:16;227.00;;;111.68;;
50739;SDS011;36704;52.524;17.580;2022-10-30T17:26:21;205.65;;;109.22;;
50739;SDS011;36704;52.524;17.580;2022-10-30T17:29:42;198.73;;;107.15;;
50739;SDS011;36704;52.524;17.580;2022-10-30T17:32:42;202.30;;;108.05;;
50739;SDS011;36704;52.524;17.580;2022-10-30T17:35:29;195.15;;;111.20;;
50739;SDS011;36704;52.524;17.580;2022-10-30T17:38:33;195.65;;;105.60;;
50739;SDS011;36704;52.524;17.580;2022-10-30T17:41:19;183.45;;;100.18;;
50739;SDS011;36704;52.524;17.580;2022-10-30T17:44:05;172.13;;;92.80;;
50739;SDS011;36704;52.524;17.580;2022-10-30T17:47:17;166.25;;;88.82;;
50739;SDS011;36704;52.524;17.580;2022-10-30T17:50:04;173.65;;;92.45;;
50739;SDS011;36704;52.524;17.580;2022-10-30T17:52:50;170.35;;;84.13;;
50739;SDS011;36704;52.524;17.580;2022-10-30T17:56:01;161.68;;;81.45;;
50739;SDS011;36704;52.524;17.580;2022-10-30T17:58:50;157.48;;;81.40;;
50739;SDS011;36704;52.524;17.580;2022-10-30T18:01:35;155.43;;;79.30;;
50739;SDS011;36704;52.524;17.580;2022-10-30T18:04:21;149.45;;;75.07;;
50739;SDS011;36704;52.524;17.580;2022-10-30T18:07:07;139.15;;;72.30;;
50739;SDS011;36704;52.524;17.580;2022-10-30T18:09:54;142.00;;;75.35;;
50739;SDS011;36704;52.524;17.580;2022-10-30T18:12:40;155.20;;;77.93;;
50739;SDS011;36704;52.524;17.580;2022-10-30T18:15:47;163.90;;;86.97;;
50739;SDS011;36704;52.524;17.580;2022-10-30T18:18:56;182.82;;;94.13;;
50739;SDS011;36704;52.524;17.580;2022-10-30T18:22:01;155.45;;;82.43;;
50739;SDS011;36704;52.524;17.580;2022-10-30T18:24:47;155.88;;;79.85;;
50739;SDS011;36704;52.524;17.580;2022-10-30T18:27:33;201.45;;;100.72;;
50739;SDS011;36704;52.524;17.580;2022-10-30T18:30:19;192.77;;;97.38;;
50739;SDS011;36704;52.524;17.580;2022-10-30T18:33:05;163.93;;;82.53;;
50739;SDS011;36704;52.524;17.580;2022-10-30T18:35:50;151.73;;;80.78;;
50739;SDS011;36704;52.524;17.580;2022-10-30T18:38:36;156.23;;;79.13;;
50739;SDS011;36704;52.524;17.580;2022-10-30T18:41:32;158.70;;;79.43;;
50739;SDS011;36704;52.524;17.580;2022-10-30T18:44:38;148.20;;;76.90;;
50739;SDS011;36704;52.524;17.580;2022-10-30T18:47:25;154.93;;;81.03;;
50739;SDS011;36704;52.524;17.580;2022-10-30T18:50:11;158.68;;;78.70;;